Ecokeeper — SVTY — position and weather

sailwx.info

Track history (hours):
 
Tides and Currents Weather Stations Pressure Air Temp Water Temp Dewpoint Dewpoint Depression Visibility Wind Speed Wind Dir Waves Ship Positions

Ecokeeper

Last reported at 2015-May-21 15:33 UTC. Time now 2015-May-23 07:18 UTC.
Position N 37°57' E 023°34'.

Length 90 m; draft 5 m.

Type: Tanker. MMSI: 240689000.

Date/timePositionNaut miles runAvg speedWind from/ knotsBaromVisibWave heightAir tempDewpointWater temp
2015-May-21 15:33N 37°57' E 023°34'6 5.6
2015-May-21 14:33N 37°52' E 023°30'0 0.1
2015-May-21 13:33N 37°52' E 023°30'0 0.0
2015-May-21 12:33N 37°52' E 023°30'0 0.0
2015-May-21 11:33N 37°52' E 023°30'0 0.1
2015-May-21 10:33N 37°52' E 023°30'0 0.0
2015-May-21 09:33N 37°52' E 023°30'0 0.0
2015-May-21 08:33N 37°52' E 023°30'0 0.0
2015-May-21 07:33N 37°52' E 023°30'0 0.0
2015-May-21 06:34N 37°52' E 023°30'0 0.0
2015-May-21 05:34N 37°52' E 023°30'3 3.3
2015-May-21 04:33N 37°55' E 023°33'2 0.1
2015-May-19 09:22N 37°57' E 023°34'1 0.6
2015-May-19 08:33N 37°57' E 023°34'0 0.0
2015-May-19 07:33N 37°57' E 023°34'0 0.1
2015-May-19 06:33N 37°57' E 023°34'0 0.5
2015-May-19 05:33N 37°57' E 023°34'0 0.0
2015-May-18 18:26N 37°57' E 023°34'3 3.8
2015-May-18 17:33N 37°54' E 023°32'3 3.3
2015-May-18 16:33N 37°51' E 023°30'0 0.0
2015-May-18 15:33N 37°51' E 023°30'0 0.0
2015-May-18 14:33N 37°51' E 023°30'0 0.0
2015-May-18 13:33N 37°51' E 023°30'0 0.0
2015-May-18 12:33N 37°51' E 023°30'0 0.0
2015-May-18 11:33N 37°51' E 023°30'0 0.4
2015-May-18 10:33N 37°51' E 023°30'0 0.1
2015-May-18 09:32N 37°51' E 023°30'0 0.3
2015-May-18 08:27N 37°51' E 023°30'0 0.5
2015-May-18 07:33N 37°51' E 023°30'0 0.1
2015-May-18 06:33N 37°51' E 023°30'7 6.7
2015-May-18 05:33N 37°57' E 023°35'  
2015-May-15 19:13N 37°57' E 023°34'1 1.9
2015-May-15 18:34N 37°56' E 023°34'5 5.1
2015-May-15 17:34N 37°51' E 023°32'0 0.0
2015-May-15 16:33N 37°51' E 023°32'0 0.0
2015-May-15 15:34N 37°51' E 023°32'0 0.0
2015-May-15 14:34N 37°51' E 023°32'0 0.0
2015-May-15 13:34N 37°51' E 023°32'0 0.0
2015-May-15 12:34N 37°51' E 023°32'0 0.0
2015-May-15 11:34N 37°51' E 023°32'0 0.5
2015-May-15 10:34N 37°52' E 023°32'5 5.5
2015-May-15 09:34N 37°57' E 023°34'0 0.0
2015-May-15 08:34N 37°57' E 023°34'0 0.0
2015-May-15 07:33N 37°57' E 023°34'0 0.0
2015-May-14 05:30N 37°57' E 023°34'0 0.0
2015-May-13 06:33N 37°57' E 023°34'0 0.0
2015-May-13 05:34N 37°57' E 023°34'0 0.0
2015-May-12 16:33N 37°57' E 023°34'5 5.2
2015-May-12 15:33N 37°52' E 023°31'0 0.3
2015-May-12 14:33N 37°52' E 023°31'0 0.0
2015-May-12 13:33N 37°52' E 023°31'0 0.0
2015-May-12 12:33N 37°52' E 023°31'0 0.0
2015-May-12 11:33N 37°52' E 023°31'0 0.1
2015-May-12 10:33N 37°52' E 023°31'0 0.0
2015-May-12 09:33N 37°52' E 023°31'0 0.0
2015-May-12 08:33N 37°52' E 023°31'0 0.0
2015-May-12 07:33N 37°52' E 023°31'0 0.1
2015-May-12 06:33N 37°52' E 023°31'0 0.0
2015-May-12 05:33N 37°52' E 023°31'2 1.6
2015-May-12 04:33N 37°53' E 023°32'4 0.3
2015-May-11 16:19N 37°57' E 023°34'  
Track history (hours):
 
Tides and Currents Weather Stations Pressure Air Temp Water Temp Dewpoint Dewpoint Depression Visibility Wind Speed Wind Dir Waves Ship Positions

Ecokeeper

Last reported at 2015-May-21 15:33 UTC. Time now 2015-May-23 07:18 UTC.
Position N 37°57' E 023°34'.

Length 90 m; draft 5 m.

Type: Tanker. MMSI: 240689000.

Date/timePositionNaut miles runAvg speedWind from/ knotsBaromVisibWave heightAir tempDewpointWater temp
2015-May-21 15:33N 37°57' E 023°34'6 5.6
2015-May-21 14:33N 37°52' E 023°30'0 0.1
2015-May-21 13:33N 37°52' E 023°30'0 0.0
2015-May-21 12:33N 37°52' E 023°30'0 0.0
2015-May-21 11:33N 37°52' E 023°30'0 0.1
2015-May-21 10:33N 37°52' E 023°30'0 0.0
2015-May-21 09:33N 37°52' E 023°30'0 0.0
2015-May-21 08:33N 37°52' E 023°30'0 0.0
2015-May-21 07:33N 37°52' E 023°30'0 0.0
2015-May-21 06:34N 37°52' E 023°30'0 0.0
2015-May-21 05:34N 37°52' E 023°30'3 3.3
2015-May-21 04:33N 37°55' E 023°33'2 0.1
2015-May-19 09:22N 37°57' E 023°34'1 0.6
2015-May-19 08:33N 37°57' E 023°34'0 0.0
2015-May-19 07:33N 37°57' E 023°34'0 0.1
2015-May-19 06:33N 37°57' E 023°34'0 0.5
2015-May-19 05:33N 37°57' E 023°34'0 0.0
2015-May-18 18:26N 37°57' E 023°34'3 3.8
2015-May-18 17:33N 37°54' E 023°32'3 3.3
2015-May-18 16:33N 37°51' E 023°30'0 0.0
2015-May-18 15:33N 37°51' E 023°30'0 0.0
2015-May-18 14:33N 37°51' E 023°30'0 0.0
2015-May-18 13:33N 37°51' E 023°30'0 0.0
2015-May-18 12:33N 37°51' E 023°30'0 0.0
2015-May-18 11:33N 37°51' E 023°30'0 0.4
2015-May-18 10:33N 37°51' E 023°30'0 0.1
2015-May-18 09:32N 37°51' E 023°30'0 0.3
2015-May-18 08:27N 37°51' E 023°30'0 0.5
2015-May-18 07:33N 37°51' E 023°30'0 0.1
2015-May-18 06:33N 37°51' E 023°30'7 6.7
2015-May-18 05:33N 37°57' E 023°35'  
2015-May-15 19:13N 37°57' E 023°34'1 1.9
2015-May-15 18:34N 37°56' E 023°34'5 5.1
2015-May-15 17:34N 37°51' E 023°32'0 0.0
2015-May-15 16:33N 37°51' E 023°32'0 0.0
2015-May-15 15:34N 37°51' E 023°32'0 0.0
2015-May-15 14:34N 37°51' E 023°32'0 0.0
2015-May-15 13:34N 37°51' E 023°32'0 0.0
2015-May-15 12:34N 37°51' E 023°32'0 0.0
2015-May-15 11:34N 37°51' E 023°32'0 0.5
2015-May-15 10:34N 37°52' E 023°32'5 5.5
2015-May-15 09:34N 37°57' E 023°34'0 0.0
2015-May-15 08:34N 37°57' E 023°34'0 0.0
2015-May-15 07:33N 37°57' E 023°34'0 0.0
2015-May-14 05:30N 37°57' E 023°34'0 0.0
2015-May-13 06:33N 37°57' E 023°34'0 0.0
2015-May-13 05:34N 37°57' E 023°34'0 0.0
2015-May-12 16:33N 37°57' E 023°34'5 5.2
2015-May-12 15:33N 37°52' E 023°31'0 0.3
2015-May-12 14:33N 37°52' E 023°31'0 0.0
2015-May-12 13:33N 37°52' E 023°31'0 0.0
2015-May-12 12:33N 37°52' E 023°31'0 0.0
2015-May-12 11:33N 37°52' E 023°31'0 0.1
2015-May-12 10:33N 37°52' E 023°31'0 0.0
2015-May-12 09:33N 37°52' E 023°31'0 0.0
2015-May-12 08:33N 37°52' E 023°31'0 0.0
2015-May-12 07:33N 37°52' E 023°31'0 0.1
2015-May-12 06:33N 37°52' E 023°31'0 0.0
2015-May-12 05:33N 37°52' E 023°31'2 1.6
2015-May-12 04:33N 37°53' E 023°32'4 0.3
2015-May-11 16:19N 37°57' E 023°34'  

Dump ship's entire track history